sensor_id;sensor_type;location;lat;lon;timestamp;P1;durP1;ratioP1;P2;durP2;ratioP2
19848;SDS011;10085;51.120;6.956;2022-10-03T00:00:19;5.47;;;2.90;;
19848;SDS011;10085;51.120;6.956;2022-10-03T00:05:28;5.18;;;2.80;;
19848;SDS011;10085;51.120;6.956;2022-10-03T00:10:40;5.50;;;2.92;;
19848;SDS011;10085;51.120;6.956;2022-10-03T00:15:54;5.47;;;3.15;;
19848;SDS011;10085;51.120;6.956;2022-10-03T00:21:08;5.43;;;2.70;;
19848;SDS011;10085;51.120;6.956;2022-10-03T00:26:24;4.93;;;3.00;;
19848;SDS011;10085;51.120;6.956;2022-10-03T00:31:36;4.15;;;2.65;;
19848;SDS011;10085;51.120;6.956;2022-10-03T00:36:45;4.70;;;2.80;;
19848;SDS011;10085;51.120;6.956;2022-10-03T00:41:59;4.00;;;2.70;;
19848;SDS011;10085;51.120;6.956;2022-10-03T00:47:40;3.88;;;2.38;;
19848;SDS011;10085;51.120;6.956;2022-10-03T00:53:07;6.22;;;2.92;;
19848;SDS011;10085;51.120;6.956;2022-10-03T00:58:32;4.10;;;2.90;;
19848;SDS011;10085;51.120;6.956;2022-10-03T01:03:43;4.45;;;2.88;;
19848;SDS011;10085;51.120;6.956;2022-10-03T01:09:00;6.90;;;3.30;;
19848;SDS011;10085;51.120;6.956;2022-10-03T01:14:22;5.22;;;2.83;;
19848;SDS011;10085;51.120;6.956;2022-10-03T01:19:48;5.05;;;2.67;;
19848;SDS011;10085;51.120;6.956;2022-10-03T01:25:05;4.45;;;2.75;;
19848;SDS011;10085;51.120;6.956;2022-10-03T01:30:14;5.45;;;2.78;;
19848;SDS011;10085;51.120;6.956;2022-10-03T01:35:28;4.82;;;2.90;;
19848;SDS011;10085;51.120;6.956;2022-10-03T01:40:34;3.58;;;2.50;;
19848;SDS011;10085;51.120;6.956;2022-10-03T01:45:45;5.00;;;2.75;;
19848;SDS011;10085;51.120;6.956;2022-10-03T01:50:53;5.28;;;2.70;;
19848;SDS011;10085;51.120;6.956;2022-10-03T01:56:02;5.95;;;2.63;;
19848;SDS011;10085;51.120;6.956;2022-10-03T02:01:11;6.03;;;3.00;;
19848;SDS011;10085;51.120;6.956;2022-10-03T02:06:18;3.80;;;2.53;;
19848;SDS011;10085;51.120;6.956;2022-10-03T02:11:28;4.60;;;2.45;;
19848;SDS011;10085;51.120;6.956;2022-10-03T02:16:37;3.85;;;2.65;;
19848;SDS011;10085;51.120;6.956;2022-10-03T02:21:45;5.30;;;2.67;;
19848;SDS011;10085;51.120;6.956;2022-10-03T02:26:55;6.47;;;2.83;;
19848;SDS011;10085;51.120;6.956;2022-10-03T02:32:28;4.10;;;2.70;;
19848;SDS011;10085;51.120;6.956;2022-10-03T02:38:01;5.22;;;2.50;;
19848;SDS011;10085;51.120;6.956;2022-10-03T02:43:17;4.05;;;2.50;;
19848;SDS011;10085;51.120;6.956;2022-10-03T03:05:23;3.72;;;2.50;;
19848;SDS011;10085;51.120;6.956;2022-10-03T03:10:34;4.55;;;2.75;;
19848;SDS011;10085;51.120;6.956;2022-10-03T03:21:28;3.15;;;2.20;;
19848;SDS011;10085;51.120;6.956;2022-10-03T03:26:49;4.90;;;2.70;;
19848;SDS011;10085;51.120;6.956;2022-10-03T03:31:58;3.72;;;2.42;;
19848;SDS011;10085;51.120;6.956;2022-10-03T03:37:07;3.97;;;2.33;;
19848;SDS011;10085;51.120;6.956;2022-10-03T03:42:21;6.13;;;2.63;;
19848;SDS011;10085;51.120;6.956;2022-10-03T03:47:37;3.38;;;2.30;;
19848;SDS011;10085;51.120;6.956;2022-10-03T03:52:53;5.03;;;2.83;;
19848;SDS011;10085;51.120;6.956;2022-10-03T03:58:12;4.45;;;2.40;;
19848;SDS011;10085;51.120;6.956;2022-10-03T04:03:24;3.90;;;2.47;;
19848;SDS011;10085;51.120;6.956;2022-10-03T04:08:40;5.18;;;2.70;;
19848;SDS011;10085;51.120;6.956;2022-10-03T04:14:08;6.60;;;2.42;;
19848;SDS011;10085;51.120;6.956;2022-10-03T04:19:22;3.72;;;2.08;;
19848;SDS011;10085;51.120;6.956;2022-10-03T04:29:59;2.83;;;2.05;;
19848;SDS011;10085;51.120;6.956;2022-10-03T04:35:15;4.38;;;2.40;;
19848;SDS011;10085;51.120;6.956;2022-10-03T04:40:29;4.93;;;2.50;;
19848;SDS011;10085;51.120;6.956;2022-10-03T04:45:52;4.80;;;2.50;;
19848;SDS011;10085;51.120;6.956;2022-10-03T04:51:01;6.85;;;3.03;;
19848;SDS011;10085;51.120;6.956;2022-10-03T04:56:12;3.13;;;2.40;;
19848;SDS011;10085;51.120;6.956;2022-10-03T05:01:44;3.65;;;2.30;;
19848;SDS011;10085;51.120;6.956;2022-10-03T05:06:55;5.53;;;2.67;;
19848;SDS011;10085;51.120;6.956;2022-10-03T05:12:06;6.07;;;2.65;;
19848;SDS011;10085;51.120;6.956;2022-10-03T05:17:16;3.05;;;2.38;;
19848;SDS011;10085;51.120;6.956;2022-10-03T05:27:45;5.90;;;2.88;;
19848;SDS011;10085;51.120;6.956;2022-10-03T05:32:53;4.43;;;2.70;;
19848;SDS011;10085;51.120;6.956;2022-10-03T05:43:45;4.60;;;2.75;;
19848;SDS011;10085;51.120;6.956;2022-10-03T05:49:01;3.85;;;2.50;;
19848;SDS011;10085;51.120;6.956;2022-10-03T05:54:15;5.22;;;2.65;;
19848;SDS011;10085;51.120;6.956;2022-10-03T06:05:15;5.07;;;2.50;;
19848;SDS011;10085;51.120;6.956;2022-10-03T06:10:33;4.72;;;2.50;;
19848;SDS011;10085;51.120;6.956;2022-10-03T06:15:59;4.40;;;2.65;;
19848;SDS011;10085;51.120;6.956;2022-10-03T06:38:26;4.22;;;2.50;;
19848;SDS011;10085;51.120;6.956;2022-10-03T06:49:27;4.10;;;2.40;;
19848;SDS011;10085;51.120;6.956;2022-10-03T07:00:18;7.15;;;2.60;;
19848;SDS011;10085;51.120;6.956;2022-10-03T07:05:47;5.10;;;2.55;;
19848;SDS011;10085;51.120;6.956;2022-10-03T07:11:14;4.05;;;2.30;;
19848;SDS011;10085;51.120;6.956;2022-10-03T07:22:26;5.13;;;2.30;;
19848;SDS011;10085;51.120;6.956;2022-10-03T07:33:37;5.68;;;2.50;;
19848;SDS011;10085;51.120;6.956;2022-10-03T07:44:13;6.55;;;2.65;;
19848;SDS011;10085;51.120;6.956;2022-10-03T07:49:42;4.75;;;2.65;;
19848;SDS011;10085;51.120;6.956;2022-10-03T07:55:08;5.97;;;2.70;;
19848;SDS011;10085;51.120;6.956;2022-10-03T08:00:20;3.90;;;2.45;;
19848;SDS011;10085;51.120;6.956;2022-10-03T08:05:32;4.10;;;2.40;;
19848;SDS011;10085;51.120;6.956;2022-10-03T08:10:49;3.25;;;2.15;;
19848;SDS011;10085;51.120;6.956;2022-10-03T08:16:18;6.00;;;2.65;;
19848;SDS011;10085;51.120;6.956;2022-10-03T08:21:28;4.65;;;2.53;;
19848;SDS011;10085;51.120;6.956;2022-10-03T08:26:42;4.35;;;2.42;;
19848;SDS011;10085;51.120;6.956;2022-10-03T08:43:58;3.67;;;2.22;;
19848;SDS011;10085;51.120;6.956;2022-10-03T08:49:12;5.25;;;2.60;;
19848;SDS011;10085;51.120;6.956;2022-10-03T08:54:31;7.03;;;2.80;;
19848;SDS011;10085;51.120;6.956;2022-10-03T08:59:55;5.70;;;2.80;;
19848;SDS011;10085;51.120;6.956;2022-10-03T09:10:53;4.43;;;2.90;;
19848;SDS011;10085;51.120;6.956;2022-10-03T09:22:01;5.20;;;2.80;;
19848;SDS011;10085;51.120;6.956;2022-10-03T09:27:17;5.95;;;3.05;;
19848;SDS011;10085;51.120;6.956;2022-10-03T09:32:34;4.70;;;2.70;;
19848;SDS011;10085;51.120;6.956;2022-10-03T09:37:58;5.25;;;3.10;;
19848;SDS011;10085;51.120;6.956;2022-10-03T09:43:30;5.53;;;3.40;;
19848;SDS011;10085;51.120;6.956;2022-10-03T09:49:01;4.53;;;2.90;;
19848;SDS011;10085;51.120;6.956;2022-10-03T09:54:32;4.05;;;2.85;;
19848;SDS011;10085;51.120;6.956;2022-10-03T09:59:54;5.00;;;3.08;;
19848;SDS011;10085;51.120;6.956;2022-10-03T10:05:23;5.00;;;3.08;;
19848;SDS011;10085;51.120;6.956;2022-10-03T10:16:23;6.63;;;3.10;;
19848;SDS011;10085;51.120;6.956;2022-10-03T10:27:06;6.22;;;3.17;;
19848;SDS011;10085;51.120;6.956;2022-10-03T10:32:38;5.90;;;2.97;;
19848;SDS011;10085;51.120;6.956;2022-10-03T10:38:06;4.95;;;2.83;;
19848;SDS011;10085;51.120;6.956;2022-10-03T10:43:32;5.60;;;3.30;;
19848;SDS011;10085;51.120;6.956;2022-10-03T10:54:27;4.15;;;2.88;;
19848;SDS011;10085;51.120;6.956;2022-10-03T11:00:00;4.60;;;3.13;;
19848;SDS011;10085;51.120;6.956;2022-10-03T11:05:35;5.22;;;3.30;;
19848;SDS011;10085;51.120;6.956;2022-10-03T11:10:47;8.63;;;3.40;;
19848;SDS011;10085;51.120;6.956;2022-10-03T11:16:05;4.95;;;3.33;;
19848;SDS011;10085;51.120;6.956;2022-10-03T11:21:41;4.85;;;3.15;;
19848;SDS011;10085;51.120;6.956;2022-10-03T11:27:17;6.13;;;3.38;;
19848;SDS011;10085;51.120;6.956;2022-10-03T11:38:12;6.20;;;3.72;;
19848;SDS011;10085;51.120;6.956;2022-10-03T11:43:41;4.13;;;3.13;;
19848;SDS011;10085;51.120;6.956;2022-10-03T11:48:53;5.35;;;3.20;;
19848;SDS011;10085;51.120;6.956;2022-10-03T11:54:01;3.58;;;2.63;;
19848;SDS011;10085;51.120;6.956;2022-10-03T11:59:33;5.90;;;3.60;;
19848;SDS011;10085;51.120;6.956;2022-10-03T12:04:54;4.63;;;3.20;;
19848;SDS011;10085;51.120;6.956;2022-10-03T12:10:00;5.20;;;3.00;;
19848;SDS011;10085;51.120;6.956;2022-10-03T12:15:14;6.28;;;3.15;;
19848;SDS011;10085;51.120;6.956;2022-10-03T12:20:23;4.88;;;2.92;;
19848;SDS011;10085;51.120;6.956;2022-10-03T12:25:27;6.97;;;3.00;;
19848;SDS011;10085;51.120;6.956;2022-10-03T12:30:36;10.10;;;3.58;;
19848;SDS011;10085;51.120;6.956;2022-10-03T12:35:43;12.93;;;3.65;;
19848;SDS011;10085;51.120;6.956;2022-10-03T12:40:52;20.58;;;3.97;;
19848;SDS011;10085;51.120;6.956;2022-10-03T12:46:02;9.90;;;3.92;;
19848;SDS011;10085;51.120;6.956;2022-10-03T12:51:12;16.45;;;3.72;;
19848;SDS011;10085;51.120;6.956;2022-10-03T12:56:21;16.55;;;3.90;;
19848;SDS011;10085;51.120;6.956;2022-10-03T13:01:40;8.90;;;3.28;;
19848;SDS011;10085;51.120;6.956;2022-10-03T13:06:56;10.60;;;3.63;;
19848;SDS011;10085;51.120;6.956;2022-10-03T13:12:09;9.52;;;3.88;;
19848;SDS011;10085;51.120;6.956;2022-10-03T13:17:20;8.38;;;3.70;;
19848;SDS011;10085;51.120;6.956;2022-10-03T13:22:28;7.88;;;3.50;;
19848;SDS011;10085;51.120;6.956;2022-10-03T13:27:36;6.00;;;3.30;;
19848;SDS011;10085;51.120;6.956;2022-10-03T13:32:45;6.93;;;3.33;;
19848;SDS011;10085;51.120;6.956;2022-10-03T13:43:56;19.38;;;3.42;;
19848;SDS011;10085;51.120;6.956;2022-10-03T13:49:04;7.53;;;3.10;;
19848;SDS011;10085;51.120;6.956;2022-10-03T13:54:13;7.05;;;3.15;;
19848;SDS011;10085;51.120;6.956;2022-10-03T13:59:28;7.97;;;3.10;;
19848;SDS011;10085;51.120;6.956;2022-10-03T14:10:14;8.95;;;3.42;;
19848;SDS011;10085;51.120;6.956;2022-10-03T14:15:26;9.50;;;3.22;;
19848;SDS011;10085;51.120;6.956;2022-10-03T14:20:34;6.13;;;2.80;;
19848;SDS011;10085;51.120;6.956;2022-10-03T14:25:41;6.13;;;3.13;;
19848;SDS011;10085;51.120;6.956;2022-10-03T14:30:52;6.60;;;2.90;;
19848;SDS011;10085;51.120;6.956;2022-10-03T14:36:14;5.90;;;2.83;;
19848;SDS011;10085;51.120;6.956;2022-10-03T14:41:24;5.63;;;2.70;;
19848;SDS011;10085;51.120;6.956;2022-10-03T14:46:32;7.85;;;3.05;;
19848;SDS011;10085;51.120;6.956;2022-10-03T14:51:43;4.80;;;2.88;;
19848;SDS011;10085;51.120;6.956;2022-10-03T14:56:49;5.88;;;2.83;;
19848;SDS011;10085;51.120;6.956;2022-10-03T15:01:53;6.72;;;3.08;;
19848;SDS011;10085;51.120;6.956;2022-10-03T15:06:59;4.38;;;2.90;;
19848;SDS011;10085;51.120;6.956;2022-10-03T15:12:04;8.90;;;2.80;;
19848;SDS011;10085;51.120;6.956;2022-10-03T15:17:16;7.25;;;2.90;;
19848;SDS011;10085;51.120;6.956;2022-10-03T15:22:26;6.65;;;3.00;;
19848;SDS011;10085;51.120;6.956;2022-10-03T15:27:33;3.95;;;2.70;;
19848;SDS011;10085;51.120;6.956;2022-10-03T15:32:37;8.63;;;2.85;;
19848;SDS011;10085;51.120;6.956;2022-10-03T15:37:44;4.18;;;2.88;;
19848;SDS011;10085;51.120;6.956;2022-10-03T15:42:49;4.60;;;2.67;;
19848;SDS011;10085;51.120;6.956;2022-10-03T15:47:55;5.10;;;2.70;;
19848;SDS011;10085;51.120;6.956;2022-10-03T15:53:02;6.78;;;2.90;;
19848;SDS011;10085;51.120;6.956;2022-10-03T15:58:31;4.35;;;2.95;;
19848;SDS011;10085;51.120;6.956;2022-10-03T16:03:36;8.40;;;3.22;;
19848;SDS011;10085;51.120;6.956;2022-10-03T16:08:49;12.60;;;3.35;;
19848;SDS011;10085;51.120;6.956;2022-10-03T16:14:03;4.90;;;2.95;;
19848;SDS011;10085;51.120;6.956;2022-10-03T16:24:41;5.53;;;3.60;;
19848;SDS011;10085;51.120;6.956;2022-10-03T16:29:49;5.28;;;3.00;;
19848;SDS011;10085;51.120;6.956;2022-10-03T16:34:56;10.23;;;3.80;;
19848;SDS011;10085;51.120;6.956;2022-10-03T16:40:02;5.78;;;3.30;;
19848;SDS011;10085;51.120;6.956;2022-10-03T16:45:12;5.40;;;3.10;;
19848;SDS011;10085;51.120;6.956;2022-10-03T16:50:22;7.93;;;3.50;;
19848;SDS011;10085;51.120;6.956;2022-10-03T16:55:30;7.57;;;3.60;;
19848;SDS011;10085;51.120;6.956;2022-10-03T17:00:37;6.82;;;3.72;;
19848;SDS011;10085;51.120;6.956;2022-10-03T17:05:44;6.88;;;3.50;;
19848;SDS011;10085;51.120;6.956;2022-10-03T17:10:52;7.40;;;3.80;;
19848;SDS011;10085;51.120;6.956;2022-10-03T17:15:58;6.28;;;3.13;;
19848;SDS011;10085;51.120;6.956;2022-10-03T17:21:05;10.30;;;3.55;;
19848;SDS011;10085;51.120;6.956;2022-10-03T17:26:13;7.78;;;3.95;;
19848;SDS011;10085;51.120;6.956;2022-10-03T17:31:23;12.55;;;4.38;;
19848;SDS011;10085;51.120;6.956;2022-10-03T17:36:37;10.77;;;5.05;;
19848;SDS011;10085;51.120;6.956;2022-10-03T17:41:48;13.70;;;4.78;;
19848;SDS011;10085;51.120;6.956;2022-10-03T17:46:56;11.93;;;4.75;;
19848;SDS011;10085;51.120;6.956;2022-10-03T17:52:00;11.35;;;4.80;;
19848;SDS011;10085;51.120;6.956;2022-10-03T17:57:05;6.55;;;4.35;;
19848;SDS011;10085;51.120;6.956;2022-10-03T18:02:14;7.72;;;4.68;;
19848;SDS011;10085;51.120;6.956;2022-10-03T18:07:20;7.38;;;4.38;;
19848;SDS011;10085;51.120;6.956;2022-10-03T18:12:28;8.88;;;4.60;;
19848;SDS011;10085;51.120;6.956;2022-10-03T18:17:35;7.38;;;4.45;;
19848;SDS011;10085;51.120;6.956;2022-10-03T18:22:49;8.40;;;4.72;;
19848;SDS011;10085;51.120;6.956;2022-10-03T18:28:06;7.68;;;4.63;;
19848;SDS011;10085;51.120;6.956;2022-10-03T18:33:14;8.02;;;4.47;;
19848;SDS011;10085;51.120;6.956;2022-10-03T18:38:19;10.25;;;4.75;;
19848;SDS011;10085;51.120;6.956;2022-10-03T18:43:26;7.70;;;4.47;;
19848;SDS011;10085;51.120;6.956;2022-10-03T18:48:32;7.60;;;4.25;;
19848;SDS011;10085;51.120;6.956;2022-10-03T18:53:38;12.02;;;3.88;;
19848;SDS011;10085;51.120;6.956;2022-10-03T18:58:49;6.25;;;3.65;;
19848;SDS011;10085;51.120;6.956;2022-10-03T19:03:59;16.55;;;4.15;;
19848;SDS011;10085;51.120;6.956;2022-10-03T19:09:04;6.85;;;4.18;;
19848;SDS011;10085;51.120;6.956;2022-10-03T19:14:15;6.97;;;4.25;;
19848;SDS011;10085;51.120;6.956;2022-10-03T19:19:21;7.90;;;4.00;;
19848;SDS011;10085;51.120;6.956;2022-10-03T19:24:26;9.23;;;4.28;;
19848;SDS011;10085;51.120;6.956;2022-10-03T19:29:54;6.45;;;4.05;;
19848;SDS011;10085;51.120;6.956;2022-10-03T19:34:58;6.78;;;3.88;;
19848;SDS011;10085;51.120;6.956;2022-10-03T19:40:10;7.07;;;3.88;;
19848;SDS011;10085;51.120;6.956;2022-10-03T19:45:16;14.23;;;4.45;;
19848;SDS011;10085;51.120;6.956;2022-10-03T19:50:20;8.23;;;4.15;;
19848;SDS011;10085;51.120;6.956;2022-10-03T19:55:28;6.68;;;3.78;;
19848;SDS011;10085;51.120;6.956;2022-10-03T20:00:34;10.13;;;3.72;;
19848;SDS011;10085;51.120;6.956;2022-10-03T20:05:40;5.32;;;3.38;;
19848;SDS011;10085;51.120;6.956;2022-10-03T20:10:50;7.15;;;4.03;;
19848;SDS011;10085;51.120;6.956;2022-10-03T20:15:59;7.88;;;4.00;;
19848;SDS011;10085;51.120;6.956;2022-10-03T20:21:07;9.00;;;3.53;;
19848;SDS011;10085;51.120;6.956;2022-10-03T20:26:11;5.65;;;3.80;;
19848;SDS011;10085;51.120;6.956;2022-10-03T20:31:21;8.93;;;4.07;;
19848;SDS011;10085;51.120;6.956;2022-10-03T20:36:26;5.88;;;3.75;;
19848;SDS011;10085;51.120;6.956;2022-10-03T20:41:33;7.55;;;3.63;;
19848;SDS011;10085;51.120;6.956;2022-10-03T20:46:42;9.82;;;3.88;;
19848;SDS011;10085;51.120;6.956;2022-10-03T20:51:58;6.78;;;3.45;;
19848;SDS011;10085;51.120;6.956;2022-10-03T20:57:02;4.30;;;3.30;;
19848;SDS011;10085;51.120;6.956;2022-10-03T21:02:12;7.28;;;3.97;;
19848;SDS011;10085;51.120;6.956;2022-10-03T21:07:22;5.00;;;3.33;;
19848;SDS011;10085;51.120;6.956;2022-10-03T21:12:29;8.07;;;4.03;;
19848;SDS011;10085;51.120;6.956;2022-10-03T21:17:35;7.82;;;3.60;;
19848;SDS011;10085;51.120;6.956;2022-10-03T21:22:38;6.88;;;3.97;;
19848;SDS011;10085;51.120;6.956;2022-10-03T21:27:45;6.03;;;3.90;;
19848;SDS011;10085;51.120;6.956;2022-10-03T21:32:53;7.55;;;3.75;;
19848;SDS011;10085;51.120;6.956;2022-10-03T21:38:03;7.60;;;3.65;;
19848;SDS011;10085;51.120;6.956;2022-10-03T21:43:13;6.72;;;3.72;;
19848;SDS011;10085;51.120;6.956;2022-10-03T21:48:26;6.15;;;3.30;;
19848;SDS011;10085;51.120;6.956;2022-10-03T21:53:35;8.65;;;3.83;;
19848;SDS011;10085;51.120;6.956;2022-10-03T21:58:46;6.63;;;3.90;;
19848;SDS011;10085;51.120;6.956;2022-10-03T22:03:57;4.93;;;3.53;;
19848;SDS011;10085;51.120;6.956;2022-10-03T22:09:03;5.85;;;3.47;;
19848;SDS011;10085;51.120;6.956;2022-10-03T22:14:15;5.32;;;3.65;;
19848;SDS011;10085;51.120;6.956;2022-10-03T22:19:26;5.35;;;3.63;;
19848;SDS011;10085;51.120;6.956;2022-10-03T22:24:37;5.47;;;3.95;;
19848;SDS011;10085;51.120;6.956;2022-10-03T22:29:48;6.55;;;3.90;;
19848;SDS011;10085;51.120;6.956;2022-10-03T22:34:59;4.75;;;3.50;;
19848;SDS011;10085;51.120;6.956;2022-10-03T22:40:10;5.55;;;3.95;;
19848;SDS011;10085;51.120;6.956;2022-10-03T22:45:14;6.30;;;4.07;;
19848;SDS011;10085;51.120;6.956;2022-10-03T22:50:19;4.95;;;3.70;;
19848;SDS011;10085;51.120;6.956;2022-10-03T22:55:23;5.18;;;3.70;;
19848;SDS011;10085;51.120;6.956;2022-10-03T23:00:27;6.18;;;3.78;;
19848;SDS011;10085;51.120;6.956;2022-10-03T23:05:42;6.93;;;4.20;;
19848;SDS011;10085;51.120;6.956;2022-10-03T23:11:17;5.90;;;3.92;;
19848;SDS011;10085;51.120;6.956;2022-10-03T23:16:29;6.32;;;4.00;;
19848;SDS011;10085;51.120;6.956;2022-10-03T23:21:46;5.78;;;4.05;;
19848;SDS011;10085;51.120;6.956;2022-10-03T23:38:31;4.70;;;3.53;;
19848;SDS011;10085;51.120;6.956;2022-10-03T23:43:53;6.72;;;4.13;;
19848;SDS011;10085;51.120;6.956;2022-10-03T23:48:57;6.60;;;4.22;;
19848;SDS011;10085;51.120;6.956;2022-10-03T23:54:01;7.15;;;3.75;;
19848;SDS011;10085;51.120;6.956;2022-10-03T23:59:10;5.35;;;3.95;;
